createdAt,value
2022-11-27T00:01:20.630Z,-0.14
2022-11-27T00:03:47.091Z,-0.21
2022-11-27T00:06:16.377Z,-0.28
2022-11-27T00:08:44.473Z,-0.24
2022-11-27T00:11:24.486Z,-0.20
2022-11-27T00:13:51.533Z,-0.17
2022-11-27T00:16:19.271Z,-0.21
2022-11-27T00:18:46.357Z,-0.18
2022-11-27T00:21:15.878Z,-0.20
2022-11-27T00:23:42.817Z,-0.13
2022-11-27T00:26:11.258Z,-0.28
2022-11-27T00:28:38.226Z,-0.37
2022-11-27T00:31:13.745Z,-0.33
2022-11-27T00:33:40.435Z,-0.51
2022-11-27T00:36:08.612Z,-0.62
2022-11-27T00:38:38.694Z,-0.69
2022-11-27T00:41:07.457Z,-0.69
2022-11-27T00:43:43.704Z,-0.69
2022-11-27T00:46:12.602Z,-0.62
2022-11-27T00:48:38.964Z,-0.65
2022-11-27T00:51:07.732Z,-0.64
2022-11-27T00:53:34.491Z,-0.68
2022-11-27T00:56:01.753Z,-0.68
2022-11-27T00:58:28.321Z,-0.77
2022-11-27T01:01:00.392Z,-0.90
2022-11-27T01:03:28.990Z,-0.96
2022-11-27T01:05:56.182Z,-1.03
2022-11-27T01:08:23.096Z,-1.03
2022-11-27T01:10:54.690Z,-0.95
2022-11-27T01:13:33.626Z,-1.00
2022-11-27T01:16:13.157Z,-1.06
2022-11-27T01:18:42.921Z,-0.98
2022-11-27T01:21:10.716Z,-0.86
2022-11-27T01:23:40.019Z,-0.87
2022-11-27T01:26:08.937Z,-0.89
2022-11-27T01:28:35.875Z,-0.94
2022-11-27T01:31:19.520Z,-0.93
2022-11-27T01:33:47.077Z,-0.83
2022-11-27T01:36:16.219Z,-0.75
2022-11-27T01:38:42.785Z,-0.71
2022-11-27T01:41:25.181Z,-0.79
2022-11-27T01:43:54.795Z,-0.91
2022-11-27T01:46:46.885Z,-0.90
2022-11-27T01:49:25.406Z,-0.87
2022-11-27T01:51:58.858Z,-0.97
2022-11-27T01:54:29.398Z,-0.98
2022-11-27T01:56:59.566Z,-0.96
2022-11-27T01:59:26.121Z,-0.95
2022-11-27T02:01:52.916Z,-1.00
2022-11-27T02:04:21.922Z,-0.99
2022-11-27T02:06:48.363Z,-0.96
2022-11-27T02:09:15.236Z,-0.93
2022-11-27T02:11:55.664Z,-1.12
2022-11-27T02:14:44.473Z,-1.15
2022-11-27T02:18:02.090Z,-1.05
2022-11-27T02:20:56.234Z,-1.11
2022-11-27T02:23:41.742Z,-1.15
2022-11-27T02:26:23.040Z,-1.03
2022-11-27T02:29:02.903Z,-0.90
2022-11-27T02:31:41.061Z,-0.84
2022-11-27T02:34:13.596Z,-1.07
2022-11-27T02:36:49.419Z,-0.94
2022-11-27T02:39:21.746Z,-0.93
2022-11-27T02:41:54.470Z,-0.90
2022-11-27T02:44:22.742Z,-0.80
2022-11-27T02:46:50.219Z,-0.80
2022-11-27T02:49:19.035Z,-0.82
2022-11-27T02:51:53.439Z,-0.96
2022-11-27T02:54:26.897Z,-1.08
2022-11-27T02:56:55.141Z,-1.09
2022-11-27T02:59:23.227Z,-1.00
2022-11-27T03:01:57.269Z,-0.95
2022-11-27T03:04:29.829Z,-0.94
2022-11-27T03:07:00.358Z,-0.89
2022-11-27T03:09:35.418Z,-0.76
2022-11-27T03:12:06.191Z,-0.85
2022-11-27T03:14:35.132Z,-0.94
2022-11-27T03:17:06.163Z,-0.93
2022-11-27T03:19:46.051Z,-0.83
2022-11-27T03:22:12.756Z,-0.79
2022-11-27T03:24:39.732Z,-0.72
2022-11-27T03:27:06.906Z,-0.70
2022-11-27T03:30:01.461Z,-0.63
2022-11-27T03:32:30.246Z,-0.74
2022-11-27T03:34:57.079Z,-0.87
2022-11-27T03:37:24.249Z,-0.90
2022-11-27T03:39:51.398Z,-0.94
2022-11-27T03:42:33.116Z,-1.03
2022-11-27T03:45:12.784Z,-1.07
2022-11-27T03:47:57.401Z,-1.09
2022-11-27T03:50:49.922Z,-1.19
2022-11-27T03:53:33.562Z,-1.08
2022-11-27T03:56:22.284Z,-1.32
2022-11-27T03:58:57.130Z,-1.35
2022-11-27T04:01:27.154Z,-1.36
2022-11-27T04:03:53.682Z,-1.39
2022-11-27T04:06:20.175Z,-1.45
2022-11-27T04:08:46.709Z,-1.41
2022-11-27T04:11:14.057Z,-1.44
2022-11-27T04:13:43.410Z,-1.26
2022-11-27T04:16:09.983Z,-1.40
2022-11-27T04:18:36.424Z,-1.44
2022-11-27T04:21:03.156Z,-1.33
2022-11-27T04:23:30.958Z,-1.34
2022-11-27T04:25:57.356Z,-1.24
2022-11-27T04:28:24.704Z,-1.19
2022-11-27T04:30:53.022Z,-1.32
2022-11-27T04:33:19.915Z,-1.33
2022-11-27T04:35:46.794Z,-1.31
2022-11-27T04:38:13.236Z,-1.38
2022-11-27T04:40:39.683Z,-1.29
2022-11-27T04:43:06.371Z,-1.34
2022-11-27T04:45:33.919Z,-1.38
2022-11-27T04:48:00.362Z,-1.65
2022-11-27T04:50:27.242Z,-1.63
2022-11-27T04:52:53.594Z,-1.62
2022-11-27T04:55:20.202Z,-1.65
2022-11-27T04:57:47.132Z,-1.71
2022-11-27T05:00:13.919Z,-1.58
2022-11-27T05:02:40.430Z,-1.48
2022-11-27T05:05:07.149Z,-1.37
2022-11-27T05:07:33.623Z,-1.34
2022-11-27T05:10:00.144Z,-1.24
2022-11-27T05:12:26.433Z,-1.32
2022-11-27T05:14:55.054Z,-1.57
2022-11-27T05:17:21.367Z,-1.39
2022-11-27T05:19:52.271Z,-1.52
2022-11-27T05:22:18.522Z,-1.56
2022-11-27T05:24:47.442Z,-1.54
2022-11-27T05:27:13.862Z,-1.74
2022-11-27T05:29:40.237Z,-1.77
2022-11-27T05:32:08.775Z,-1.80
2022-11-27T05:34:35.077Z,-1.73
2022-11-27T05:37:01.434Z,-1.67
2022-11-27T05:39:27.743Z,-1.66
2022-11-27T05:41:54.068Z,-1.74
2022-11-27T05:44:20.465Z,-1.70
2022-11-27T05:46:46.856Z,-1.73
2022-11-27T05:49:17.325Z,-1.64
2022-11-27T05:51:51.279Z,-1.57
2022-11-27T05:54:19.487Z,-1.78
2022-11-27T05:56:46.142Z,-1.73
2022-11-27T05:59:12.852Z,-1.63
2022-11-27T06:01:40.608Z,-1.55
2022-11-27T06:04:07.019Z,-1.58
2022-11-27T06:06:33.513Z,-1.68
2022-11-27T06:09:00.539Z,-1.63
2022-11-27T06:11:27.224Z,-1.67
2022-11-27T06:13:53.643Z,-1.73
2022-11-27T06:16:22.444Z,-1.71
2022-11-27T06:18:52.039Z,-1.60
2022-11-27T06:21:19.790Z,-1.56
2022-11-27T06:23:46.765Z,-1.55
2022-11-27T06:26:19.386Z,-1.48
2022-11-27T06:28:46.805Z,-1.57
2022-11-27T06:31:18.207Z,-1.52
2022-11-27T06:33:48.042Z,-1.46
2022-11-27T06:36:15.305Z,-1.76
2022-11-27T06:38:42.325Z,-1.82
2022-11-27T06:41:14.118Z,-1.77
2022-11-27T06:43:40.805Z,-1.75
2022-11-27T06:46:09.535Z,-1.67
2022-11-27T06:48:36.153Z,-1.60
2022-11-27T06:51:04.969Z,-1.61
2022-11-27T06:53:33.277Z,-1.53
2022-11-27T06:56:02.039Z,-1.48
2022-11-27T06:58:31.205Z,-1.43
2022-11-27T07:01:04.249Z,-1.42
2022-11-27T07:03:30.630Z,-1.41
2022-11-27T07:06:00.478Z,-1.40
2022-11-27T07:08:27.401Z,-1.59
2022-11-27T07:10:53.994Z,-1.50
2022-11-27T07:13:20.370Z,-1.63
2022-11-27T07:15:46.692Z,-1.70
2022-11-27T07:18:13.053Z,-1.80
2022-11-27T07:20:39.506Z,-1.78
2022-11-27T07:23:05.817Z,-1.62
2022-11-27T07:25:32.219Z,-1.53
2022-11-27T07:27:59.080Z,-1.42
2022-11-27T07:30:25.754Z,-1.55
2022-11-27T07:32:53.883Z,-1.68
2022-11-27T07:35:20.743Z,-1.92
2022-11-27T07:37:47.021Z,-2.05
2022-11-27T07:40:14.981Z,-2.00
2022-11-27T07:42:42.733Z,-2.05
2022-11-27T07:45:10.305Z,-1.95
2022-11-27T07:47:38.437Z,-1.83
2022-11-27T07:50:06.650Z,-1.98
2022-11-27T07:52:41.580Z,-1.81
2022-11-27T07:55:09.139Z,-1.72
2022-11-27T07:57:35.656Z,-1.82
2022-11-27T08:00:02.165Z,-1.91
2022-11-27T08:02:28.756Z,-2.05
2022-11-27T08:04:56.405Z,-1.89
2022-11-27T08:07:29.494Z,-1.96
2022-11-27T08:09:57.223Z,-2.07
2022-11-27T08:12:25.126Z,-2.19
2022-11-27T08:14:51.892Z,-1.95
2022-11-27T08:17:19.435Z,-1.97
2022-11-27T08:19:45.963Z,-1.85
2022-11-27T08:22:14.679Z,-1.89
2022-11-27T08:24:41.309Z,-1.91
2022-11-27T08:27:11.497Z,-1.96
2022-11-27T08:29:38.281Z,-1.97
2022-11-27T08:32:06.153Z,-1.91
2022-11-27T08:34:32.923Z,-2.02
2022-11-27T08:36:59.571Z,-1.91
2022-11-27T08:39:26.475Z,-2.01
2022-11-27T08:41:54.170Z,-2.01
2022-11-27T08:44:20.915Z,-1.70
2022-11-27T08:46:47.375Z,-1.80
2022-11-27T08:49:13.947Z,-1.83
2022-11-27T08:51:40.373Z,-1.58
2022-11-27T08:54:07.055Z,-1.59
2022-11-27T08:56:33.921Z,-1.60
2022-11-27T08:59:00.465Z,-1.53
2022-11-27T09:01:29.801Z,-1.48
2022-11-27T09:03:56.662Z,-1.17
2022-11-27T09:06:25.415Z,-0.97
2022-11-27T09:08:52.005Z,-0.74
2022-11-27T09:11:20.117Z,-0.76
2022-11-27T09:13:48.355Z,-0.56
2022-11-27T09:16:17.114Z,-0.74
2022-11-27T09:18:45.315Z,-0.76
2022-11-27T09:21:13.362Z,-0.75
2022-11-27T09:23:39.986Z,-0.85
2022-11-27T09:26:09.638Z,-0.69
2022-11-27T09:28:37.482Z,-0.68
2022-11-27T09:31:06.261Z,-0.35
2022-11-27T09:33:34.846Z,-0.31
2022-11-27T09:36:09.233Z,-0.33
2022-11-27T09:38:37.015Z,-0.17
2022-11-27T09:41:26.441Z,0.08
2022-11-27T09:43:59.499Z,0.16
2022-11-27T09:46:33.105Z,0.16
2022-11-27T09:49:03.367Z,0.01
2022-11-27T09:51:32.471Z,-0.25
2022-11-27T09:54:02.090Z,-0.02
2022-11-27T09:56:31.984Z,0.12
2022-11-27T09:59:02.286Z,0.22
2022-11-27T10:01:40.408Z,0.46
2022-11-27T10:04:15.602Z,0.52
2022-11-27T10:06:59.135Z,0.52
2022-11-27T10:09:43.117Z,0.58
2022-11-27T10:12:31.301Z,0.21
2022-11-27T10:15:06.164Z,0.11
2022-11-27T10:17:52.495Z,0.25
2022-11-27T10:20:42.385Z,0.77
2022-11-27T10:23:34.348Z,0.68
2022-11-27T10:26:15.746Z,0.48
2022-11-27T10:28:53.354Z,1.02
2022-11-27T10:31:33.250Z,1.23
2022-11-27T10:34:20.189Z,1.38
2022-11-27T10:36:50.431Z,1.36
2022-11-27T10:39:34.695Z,1.06
2022-11-27T10:42:10.589Z,1.28
2022-11-27T10:44:46.301Z,0.99
2022-11-27T10:47:14.100Z,1.36
2022-11-27T10:49:42.235Z,1.45
2022-11-27T10:52:14.610Z,1.33
2022-11-27T10:54:43.140Z,1.58
2022-11-27T10:57:28.536Z,1.68
2022-11-27T11:00:10.118Z,1.69
2022-11-27T11:02:38.575Z,2.02
2022-11-27T11:08:18.793Z,2.63
2022-11-27T11:10:52.673Z,2.84
2022-11-27T11:13:24.782Z,3.36
2022-11-27T11:16:08.063Z,3.17
2022-11-27T11:18:54.081Z,3.51
2022-11-27T11:21:37.916Z,3.94
2022-11-27T11:24:13.123Z,4.14
2022-11-27T11:26:59.424Z,4.60
2022-11-27T11:29:31.441Z,4.07
2022-11-27T11:32:03.739Z,4.35
2022-11-27T11:34:31.676Z,4.82
2022-11-27T11:37:01.935Z,4.63
2022-11-27T11:39:33.071Z,4.78
2022-11-27T11:42:01.096Z,4.82
2022-11-27T11:44:38.033Z,5.51
2022-11-27T11:47:06.380Z,5.25
2022-11-27T11:49:35.524Z,5.18
2022-11-27T11:52:17.543Z,5.01
2022-11-27T11:55:11.014Z,5.03
2022-11-27T11:58:14.976Z,5.29
2022-11-27T12:01:24.986Z,4.96
2022-11-27T12:03:57.687Z,4.80
2022-11-27T12:06:58.540Z,5.19
2022-11-27T12:09:38.690Z,5.48
2022-11-27T12:12:40.866Z,5.41
2022-11-27T12:15:25.930Z,5.85
2022-11-27T12:18:09.518Z,6.56
2022-11-27T12:20:57.386Z,6.57
2022-11-27T12:23:40.223Z,7.08
2022-11-27T12:26:27.623Z,7.25
2022-11-27T12:29:06.969Z,7.07
2022-11-27T12:31:59.021Z,7.46
2022-11-27T12:35:10.125Z,7.65
2022-11-27T12:38:05.474Z,7.82
2022-11-27T12:41:05.077Z,8.27
2022-11-27T12:43:45.357Z,8.29
2022-11-27T12:46:30.010Z,8.77
2022-11-27T12:49:03.367Z,8.53
2022-11-27T12:51:37.905Z,8.17
2022-11-27T12:54:14.956Z,8.63
2022-11-27T12:56:49.226Z,8.55
2022-11-27T12:59:38.688Z,9.34
2022-11-27T13:02:38.420Z,8.76
2022-11-27T13:05:32.399Z,8.67
2022-11-27T13:08:52.475Z,8.53
2022-11-27T13:11:23.409Z,8.45
2022-11-27T13:13:55.170Z,8.39
2022-11-27T13:16:27.346Z,8.31
2022-11-27T13:19:00.383Z,8.74
2022-11-27T13:21:30.124Z,9.12
2022-11-27T13:24:00.794Z,9.00
2022-11-27T13:26:38.537Z,8.54
2022-11-27T13:29:15.941Z,8.27
2022-11-27T13:31:44.351Z,8.08
2022-11-27T13:34:20.181Z,8.17
2022-11-27T13:36:54.386Z,8.15
2022-11-27T13:39:34.253Z,8.03
2022-11-27T13:42:06.206Z,8.15
2022-11-27T13:44:36.320Z,8.03
2022-11-27T13:47:16.307Z,8.04
2022-11-27T13:49:43.047Z,7.86
2022-11-27T13:52:11.585Z,7.82
2022-11-27T13:54:38.769Z,7.75
2022-11-27T13:57:19.197Z,7.71
2022-11-27T14:00:15.362Z,7.63
2022-11-27T14:02:48.810Z,7.68
2022-11-27T14:05:18.362Z,7.50
2022-11-27T14:07:48.832Z,7.43
2022-11-27T14:10:19.641Z,7.40
2022-11-27T14:13:04.450Z,7.31
2022-11-27T14:15:36.556Z,7.33
2022-11-27T14:18:17.490Z,7.36
2022-11-27T14:21:02.972Z,7.43
2022-11-27T14:23:33.876Z,7.28
2022-11-27T14:26:21.910Z,7.15
2022-11-27T14:28:58.021Z,7.08
2022-11-27T14:31:32.090Z,6.97
2022-11-27T14:34:15.297Z,6.96
2022-11-27T14:36:42.568Z,7.15
2022-11-27T14:39:21.058Z,7.09
2022-11-27T14:41:56.664Z,7.07
2022-11-27T14:44:23.095Z,6.99
2022-11-27T14:46:50.859Z,6.63
2022-11-27T14:49:19.523Z,6.73
2022-11-27T14:51:46.166Z,6.50
2022-11-27T14:54:24.996Z,6.50
2022-11-27T14:56:52.827Z,6.44
2022-11-27T14:59:22.335Z,6.31
2022-11-27T15:02:13.875Z,6.19
2022-11-27T15:04:42.569Z,6.30
2022-11-27T15:07:17.972Z,6.12
2022-11-27T15:09:49.784Z,5.96
2022-11-27T15:12:23.597Z,5.90
2022-11-27T15:14:58.803Z,5.86
2022-11-27T15:17:28.447Z,5.63
2022-11-27T15:19:56.380Z,5.88
2022-11-27T15:22:23.633Z,5.79
2022-11-27T15:25:05.399Z,5.65
2022-11-27T15:27:33.018Z,5.62
2022-11-27T15:30:08.612Z,5.56
2022-11-27T15:32:45.374Z,5.37
2022-11-27T15:35:14.195Z,5.18
2022-11-27T15:37:41.582Z,5.23
2022-11-27T15:40:23.774Z,5.05
2022-11-27T15:42:50.138Z,4.96
2022-11-27T15:45:16.664Z,4.98
2022-11-27T15:47:43.181Z,4.90
2022-11-27T15:50:17.386Z,4.87
2022-11-27T15:52:44.024Z,4.83
2022-11-27T15:55:14.519Z,4.79
2022-11-27T15:57:41.168Z,4.74
2022-11-27T16:00:08.624Z,4.71
2022-11-27T16:02:35.135Z,4.70
2022-11-27T16:05:01.608Z,4.67
2022-11-27T16:07:27.987Z,4.62
2022-11-27T16:09:54.422Z,4.57
2022-11-27T16:12:22.004Z,4.57
2022-11-27T16:14:48.358Z,4.57
2022-11-27T16:17:14.903Z,4.49
2022-11-27T16:19:41.353Z,4.51
2022-11-27T16:22:07.827Z,4.45
2022-11-27T16:24:34.230Z,4.39
2022-11-27T16:27:00.795Z,4.32
2022-11-27T16:29:27.232Z,4.24
2022-11-27T16:31:53.712Z,4.17
2022-11-27T16:34:20.353Z,4.18
2022-11-27T16:36:46.891Z,4.18
2022-11-27T16:39:13.473Z,4.16
2022-11-27T16:41:40.347Z,4.12
2022-11-27T16:44:13.379Z,4.07
2022-11-27T16:46:41.404Z,4.06
2022-11-27T16:49:07.887Z,4.05
2022-11-27T16:51:37.415Z,3.99
2022-11-27T16:54:06.769Z,3.97
2022-11-27T16:56:34.109Z,3.93
2022-11-27T16:59:03.148Z,3.92
2022-11-27T17:01:33.655Z,3.96
2022-11-27T17:04:00.338Z,3.96
2022-11-27T17:06:30.440Z,3.96
2022-11-27T17:08:59.199Z,3.97
2022-11-27T17:11:28.692Z,3.98
2022-11-27T17:14:00.636Z,3.97
2022-11-27T17:16:27.419Z,3.98
2022-11-27T17:18:54.264Z,3.98
2022-11-27T17:21:23.510Z,3.99
2022-11-27T17:23:51.120Z,3.96
2022-11-27T17:26:21.797Z,3.97
2022-11-27T17:28:48.167Z,3.97
2022-11-27T17:31:18.352Z,4.00
2022-11-27T17:33:45.783Z,4.00
2022-11-27T17:36:12.475Z,4.01
2022-11-27T17:38:39.252Z,4.01
2022-11-27T17:41:09.604Z,4.05
2022-11-27T17:43:37.320Z,4.05
2022-11-27T17:46:08.679Z,4.28
2022-11-27T17:48:35.525Z,4.08
2022-11-27T17:51:02.757Z,3.93
2022-11-27T17:53:29.112Z,3.89
2022-11-27T17:55:55.463Z,3.85
2022-11-27T17:58:21.951Z,3.80
2022-11-27T18:00:48.389Z,3.77
2022-11-27T18:03:15.130Z,3.77
2022-11-27T18:05:41.501Z,3.73
2022-11-27T18:08:07.986Z,3.68
2022-11-27T18:10:34.628Z,3.61
2022-11-27T18:13:01.164Z,3.60
2022-11-27T18:15:29.002Z,3.57
2022-11-27T18:17:55.485Z,3.56
2022-11-27T18:20:22.113Z,3.55
2022-11-27T18:22:48.642Z,3.54
2022-11-27T18:25:15.172Z,3.53
2022-11-27T18:27:41.725Z,3.52
2022-11-27T18:30:08.793Z,3.55
2022-11-27T18:32:38.697Z,3.56
2022-11-27T18:35:06.012Z,3.55
2022-11-27T18:37:34.897Z,3.52
2022-11-27T18:40:01.728Z,3.59
2022-11-27T18:42:29.233Z,3.49
2022-11-27T18:44:55.662Z,3.46
2022-11-27T18:47:22.166Z,3.45
2022-11-27T18:49:48.618Z,3.43
2022-11-27T18:52:15.237Z,3.43
2022-11-27T18:54:41.983Z,3.45
2022-11-27T18:57:09.480Z,3.46
2022-11-27T18:59:35.778Z,3.47
2022-11-27T19:02:02.696Z,3.48
2022-11-27T19:04:29.130Z,3.48
2022-11-27T19:06:55.782Z,3.44
2022-11-27T19:09:22.197Z,3.38
2022-11-27T19:11:50.199Z,3.35
2022-11-27T19:14:16.577Z,3.32
2022-11-27T19:16:44.642Z,3.30
2022-11-27T19:19:50.270Z,3.27
2022-11-27T19:21:59.538Z,3.24
2022-11-27T19:24:25.968Z,3.24
2022-11-27T19:26:52.270Z,3.23
2022-11-27T19:29:18.743Z,3.23
2022-11-27T19:31:45.145Z,3.26
2022-11-27T19:34:14.491Z,3.23
2022-11-27T19:36:40.994Z,3.23
2022-11-27T19:39:12.795Z,3.23
2022-11-27T19:41:39.216Z,3.27
2022-11-27T19:44:06.759Z,3.31
2022-11-27T19:46:35.966Z,3.30
2022-11-27T19:49:05.968Z,3.26
2022-11-27T19:51:35.225Z,3.26
2022-11-27T19:54:04.551Z,3.33
2022-11-27T19:56:35.145Z,3.38
2022-11-27T19:59:02.292Z,3.41
2022-11-27T20:01:29.065Z,3.43
2022-11-27T20:03:55.691Z,3.45
2022-11-27T20:06:24.539Z,3.42
2022-11-27T20:08:53.476Z,3.51
2022-11-27T20:11:23.249Z,3.48
2022-11-27T20:13:49.751Z,3.51
2022-11-27T20:16:19.105Z,3.51
2022-11-27T20:18:46.843Z,3.49
2022-11-27T20:21:22.593Z,3.49
2022-11-27T20:23:51.930Z,3.48
2022-11-27T20:26:21.574Z,3.45
2022-11-27T20:28:48.992Z,3.40
2022-11-27T20:31:18.833Z,3.41
2022-11-27T20:33:45.600Z,3.42
2022-11-27T20:36:14.368Z,3.39
2022-11-27T20:38:41.161Z,3.30
2022-11-27T20:41:13.362Z,3.34
2022-11-27T20:43:40.206Z,3.38
2022-11-27T20:46:07.255Z,3.37
2022-11-27T20:48:34.423Z,3.39
2022-11-27T20:51:09.838Z,3.41
2022-11-27T20:53:37.308Z,3.40
2022-11-27T20:56:05.785Z,3.36
2022-11-27T20:58:33.949Z,3.30
2022-11-27T21:01:00.475Z,3.29
2022-11-27T21:03:28.432Z,3.29
2022-11-27T21:05:55.261Z,3.27
2022-11-27T21:08:22.454Z,3.30
2022-11-27T21:10:49.906Z,3.34
2022-11-27T21:13:16.316Z,3.37
2022-11-27T21:15:46.735Z,3.32
2022-11-27T21:18:13.715Z,3.34
2022-11-27T21:20:40.525Z,3.40
2022-11-27T21:23:06.852Z,3.42
2022-11-27T21:25:33.353Z,3.44
2022-11-27T21:27:59.962Z,3.46
2022-11-27T21:30:26.334Z,3.47
2022-11-27T21:32:52.676Z,3.46
2022-11-27T21:35:19.066Z,3.47
2022-11-27T21:37:45.583Z,3.52
2022-11-27T21:40:12.683Z,3.55
2022-11-27T21:42:44.203Z,3.51
2022-11-27T21:45:11.026Z,3.57
2022-11-27T21:47:37.461Z,3.58
2022-11-27T21:50:04.669Z,3.61
2022-11-27T21:52:31.052Z,3.57
2022-11-27T21:54:57.636Z,3.53
2022-11-27T21:57:24.138Z,3.45
2022-11-27T21:59:50.554Z,3.38
2022-11-27T22:02:16.955Z,3.35
2022-11-27T22:04:43.522Z,3.41
2022-11-27T22:07:10.166Z,3.39
2022-11-27T22:09:36.494Z,3.39
2022-11-27T22:12:02.893Z,3.39
2022-11-27T22:14:29.241Z,3.39
2022-11-27T22:16:55.677Z,3.39
2022-11-27T22:19:22.127Z,3.37
2022-11-27T22:21:48.587Z,3.36
2022-11-27T22:24:19.386Z,3.34
2022-11-27T22:26:46.539Z,3.35
2022-11-27T22:29:12.993Z,3.25
2022-11-27T22:31:39.311Z,3.24
2022-11-27T22:34:05.775Z,3.26
2022-11-27T22:36:33.861Z,3.27
2022-11-27T22:39:04.476Z,3.28
2022-11-27T22:41:36.079Z,3.26
2022-11-27T22:44:13.117Z,3.28
2022-11-27T22:46:41.020Z,3.29
2022-11-27T22:49:09.796Z,3.30
2022-11-27T22:51:36.559Z,3.32
2022-11-27T22:54:04.787Z,3.35
2022-11-27T22:56:31.217Z,3.35
2022-11-27T22:59:24.605Z,3.31
2022-11-27T23:01:45.987Z,3.32
2022-11-27T23:04:12.337Z,3.33
2022-11-27T23:06:40.226Z,3.32
2022-11-27T23:09:06.600Z,3.28
2022-11-27T23:11:33.222Z,3.28
2022-11-27T23:13:59.621Z,3.31
2022-11-27T23:16:26.258Z,3.35
2022-11-27T23:18:54.008Z,3.38
2022-11-27T23:21:22.987Z,3.45
2022-11-27T23:23:49.968Z,3.50
2022-11-27T23:26:20.332Z,3.51
2022-11-27T23:28:49.228Z,3.54
2022-11-27T23:31:29.960Z,3.63
2022-11-27T23:33:57.084Z,3.63
2022-11-27T23:36:23.633Z,3.69
2022-11-27T23:38:50.035Z,3.48
2022-11-27T23:41:19.116Z,3.46
2022-11-27T23:43:45.703Z,3.50
2022-11-27T23:46:14.803Z,3.52
2022-11-27T23:48:41.869Z,3.52
2022-11-27T23:51:29.820Z,3.46
2022-11-27T23:53:57.051Z,3.48
2022-11-27T23:56:26.724Z,3.48
2022-11-27T23:58:56.786Z,3.46
